createdAt,value
2022-10-16T00:00:09.359Z,10.99
2022-10-16T00:02:40.039Z,10.92
2022-10-16T00:05:17.453Z,11.03
2022-10-16T00:07:53.417Z,11.13
2022-10-16T00:10:20.938Z,11.14
2022-10-16T00:12:54.123Z,10.99
2022-10-16T00:15:27.406Z,11.03
2022-10-16T00:18:00.081Z,11.04
2022-10-16T00:20:34.765Z,11.13
2022-10-16T00:25:55.984Z,11.09
2022-10-16T00:28:26.530Z,11.07
2022-10-16T00:31:00.717Z,11.16
2022-10-16T00:33:29.497Z,11.19
2022-10-16T00:36:00.153Z,11.14
2022-10-16T00:38:30.686Z,11.07
2022-10-16T00:41:06.995Z,10.93
2022-10-16T00:43:37.515Z,10.85
2022-10-16T00:46:08.744Z,10.76
2022-10-16T00:48:38.752Z,10.53
2022-10-16T00:51:08.320Z,10.36
2022-10-16T00:53:39.293Z,10.57
2022-10-16T00:56:11.193Z,10.75
2022-10-16T00:58:45.311Z,10.74
2022-10-16T01:01:18.987Z,10.76
2022-10-16T01:03:50.080Z,10.82
2022-10-16T01:06:50.513Z,10.82
2022-10-16T01:09:34.014Z,10.78
2022-10-16T01:12:17.548Z,10.93
2022-10-16T01:14:53.760Z,10.94
2022-10-16T01:17:36.134Z,10.55
2022-10-16T01:20:11.517Z,10.90
2022-10-16T01:22:59.958Z,10.90
2022-10-16T01:25:35.513Z,10.93
2022-10-16T01:28:10.279Z,11.02
2022-10-16T01:30:39.008Z,11.04
2022-10-16T01:33:32.027Z,10.91
2022-10-16T01:36:07.328Z,10.90
2022-10-16T01:38:40.148Z,10.90
2022-10-16T01:41:30.527Z,10.97
2022-10-16T01:44:14.000Z,10.88
2022-10-16T01:46:47.808Z,10.76
2022-10-16T01:49:22.054Z,10.82
2022-10-16T01:51:54.162Z,10.91
2022-10-16T01:54:28.238Z,11.01
2022-10-16T01:56:57.945Z,11.00
2022-10-16T01:59:28.192Z,10.97
2022-10-16T02:02:15.109Z,10.92
2022-10-16T02:05:01.386Z,10.86
2022-10-16T02:07:32.329Z,10.87
2022-10-16T02:10:02.957Z,10.94
2022-10-16T02:12:33.711Z,10.94
2022-10-16T02:15:10.005Z,10.78
2022-10-16T02:17:40.634Z,10.66
2022-10-16T02:20:10.444Z,10.71
2022-10-16T02:22:43.756Z,10.81
2022-10-16T02:25:20.200Z,10.97
2022-10-16T02:28:22.686Z,10.86
2022-10-16T02:30:59.570Z,10.85
2022-10-16T02:33:31.901Z,10.80
2022-10-16T02:38:50.427Z,10.67
2022-10-16T02:41:20.750Z,10.73
2022-10-16T02:44:04.706Z,10.76
2022-10-16T02:46:36.522Z,10.76
2022-10-16T02:49:13.921Z,10.77
2022-10-16T02:51:47.587Z,10.70
2022-10-16T02:54:17.699Z,10.60
2022-10-16T02:57:00.864Z,10.61
2022-10-16T02:59:39.531Z,10.70
2022-10-16T03:02:07.247Z,10.70
2022-10-16T03:04:37.925Z,10.78
2022-10-16T03:07:12.101Z,10.87
2022-10-16T03:09:45.375Z,10.81
2022-10-16T03:14:59.554Z,10.89
2022-10-16T03:20:13.963Z,10.82
2022-10-16T03:22:44.852Z,10.80
2022-10-16T03:25:16.875Z,10.79
2022-10-16T03:27:47.611Z,10.95
2022-10-16T03:30:31.637Z,10.69
2022-10-16T03:33:08.904Z,10.55
2022-10-16T03:35:46.213Z,10.60
2022-10-16T03:38:16.312Z,10.59
2022-10-16T03:40:46.079Z,10.64
2022-10-16T03:43:16.169Z,10.61
2022-10-16T03:45:49.640Z,10.57
2022-10-16T03:48:20.695Z,10.62
2022-10-16T03:50:52.672Z,10.66
2022-10-16T03:53:23.084Z,10.62
2022-10-16T03:55:53.801Z,10.62
2022-10-16T03:58:25.448Z,10.64
2022-10-16T04:01:02.384Z,10.56
2022-10-16T04:03:36.041Z,10.60
2022-10-16T04:06:12.425Z,10.66
2022-10-16T04:08:44.204Z,10.77
2022-10-16T04:11:22.290Z,10.66
2022-10-16T04:13:52.285Z,10.75
2022-10-16T04:16:29.014Z,10.65
2022-10-16T04:19:05.578Z,10.53
2022-10-16T04:21:35.843Z,10.50
2022-10-16T04:24:07.795Z,10.48
2022-10-16T04:26:39.618Z,10.55
2022-10-16T04:29:10.501Z,10.48
2022-10-16T04:31:40.102Z,10.36
2022-10-16T04:34:20.558Z,10.41
2022-10-16T04:37:01.694Z,10.48
2022-10-16T04:39:32.752Z,10.18
2022-10-16T04:42:08.160Z,10.21
2022-10-16T04:44:42.352Z,10.39
2022-10-16T04:47:19.428Z,10.20
2022-10-16T04:49:48.398Z,10.20
2022-10-16T04:52:18.508Z,10.24
2022-10-16T04:54:53.667Z,10.29
2022-10-16T04:57:27.741Z,10.27
2022-10-16T05:00:04.062Z,10.23
2022-10-16T05:02:40.038Z,10.36
2022-10-16T05:05:10.410Z,10.48
2022-10-16T05:07:56.890Z,10.36
2022-10-16T05:10:33.873Z,10.27
2022-10-16T05:13:09.870Z,10.24
2022-10-16T05:15:44.065Z,10.17
2022-10-16T05:18:20.140Z,10.11
2022-10-16T05:20:53.266Z,10.10
2022-10-16T05:23:36.981Z,10.16
2022-10-16T05:26:07.907Z,10.12
2022-10-16T05:28:42.134Z,10.14
2022-10-16T05:31:11.972Z,10.15
2022-10-16T05:33:44.308Z,10.23
2022-10-16T05:36:24.949Z,10.12
2022-10-16T05:38:54.005Z,10.15
2022-10-16T05:41:26.973Z,10.13
2022-10-16T05:43:59.526Z,10.10
2022-10-16T05:46:29.648Z,10.21
2022-10-16T05:49:00.344Z,10.27
2022-10-16T05:51:32.066Z,9.99
2022-10-16T05:54:03.154Z,10.06
2022-10-16T05:56:33.265Z,10.22
2022-10-16T05:59:02.516Z,10.16
2022-10-16T06:01:40.443Z,10.18
2022-10-16T06:04:28.958Z,10.10
2022-10-16T06:07:03.772Z,10.12
2022-10-16T06:09:35.461Z,10.30
2022-10-16T06:12:13.239Z,10.14
2022-10-16T06:14:46.434Z,10.17
2022-10-16T06:17:25.274Z,10.13
2022-10-16T06:19:54.888Z,10.08
2022-10-16T06:22:28.643Z,10.14
2022-10-16T06:24:57.935Z,10.28
2022-10-16T06:27:26.913Z,10.30
2022-10-16T06:29:58.914Z,10.17
2022-10-16T06:32:36.501Z,10.15
2022-10-16T06:35:04.565Z,10.31
2022-10-16T06:37:35.215Z,10.15
2022-10-16T06:40:05.348Z,10.09
2022-10-16T06:42:48.428Z,10.14
2022-10-16T06:45:18.038Z,10.19
2022-10-16T06:47:48.266Z,10.00
2022-10-16T06:50:16.974Z,10.15
2022-10-16T06:52:48.416Z,10.38
2022-10-16T06:55:18.990Z,10.30
2022-10-16T06:57:56.634Z,10.39
2022-10-16T07:00:26.479Z,10.23
2022-10-16T07:03:13.534Z,10.20
2022-10-16T07:05:53.319Z,10.25
2022-10-16T07:08:24.356Z,10.22
2022-10-16T07:11:02.094Z,10.53
2022-10-16T07:13:35.524Z,10.56
2022-10-16T07:16:17.567Z,10.48
2022-10-16T07:19:01.954Z,10.56
2022-10-16T07:21:36.991Z,10.63
2022-10-16T07:24:17.884Z,10.69
2022-10-16T07:26:49.605Z,10.71
2022-10-16T07:29:23.054Z,10.80
2022-10-16T07:31:58.254Z,10.34
2022-10-16T07:34:29.628Z,10.57
2022-10-16T07:37:01.122Z,10.53
2022-10-16T07:39:34.652Z,10.68
2022-10-16T07:42:03.550Z,10.48
2022-10-16T07:44:34.705Z,10.62
2022-10-16T07:47:05.052Z,10.66
2022-10-16T07:49:38.639Z,10.87
2022-10-16T07:52:08.009Z,11.10
2022-10-16T07:54:37.951Z,11.21
2022-10-16T07:57:08.200Z,11.03
2022-10-16T07:59:41.903Z,11.17
2022-10-16T08:02:19.189Z,11.20
2022-10-16T08:04:55.980Z,11.10
2022-10-16T08:07:26.101Z,11.10
2022-10-16T08:09:59.479Z,11.13
2022-10-16T08:12:29.370Z,11.17
2022-10-16T08:15:00.782Z,11.18
2022-10-16T08:17:35.867Z,11.26
2022-10-16T08:20:06.526Z,11.37
2022-10-16T08:22:37.686Z,11.33
2022-10-16T08:25:07.811Z,11.39
2022-10-16T08:27:43.780Z,11.50
2022-10-16T08:30:21.551Z,11.43
2022-10-16T08:32:52.229Z,11.41
2022-10-16T08:35:19.929Z,11.46
2022-10-16T08:40:36.524Z,11.54
2022-10-16T08:43:35.921Z,11.57
2022-10-16T08:46:24.374Z,11.51
2022-10-16T08:49:02.836Z,11.43
2022-10-16T08:51:40.228Z,11.37
2022-10-16T08:54:36.611Z,11.39
2022-10-16T08:57:34.799Z,11.44
2022-10-16T09:00:09.216Z,11.64
2022-10-16T09:02:51.816Z,11.89
2022-10-16T09:05:39.161Z,11.98
2022-10-16T09:08:38.162Z,12.01
2022-10-16T09:11:16.271Z,12.00
2022-10-16T09:14:01.942Z,11.91
2022-10-16T09:16:41.770Z,11.96
2022-10-16T09:19:33.155Z,12.10
2022-10-16T09:22:12.363Z,11.64
2022-10-16T09:24:49.482Z,11.90
2022-10-16T09:27:19.706Z,12.09
2022-10-16T09:29:51.974Z,12.34
2022-10-16T09:32:24.902Z,12.70
2022-10-16T09:35:11.241Z,12.85
2022-10-16T09:37:42.163Z,12.71
2022-10-16T09:40:15.012Z,13.07
2022-10-16T09:42:45.344Z,13.10
2022-10-16T09:45:28.237Z,12.97
2022-10-16T09:47:59.492Z,13.21
2022-10-16T09:53:13.792Z,13.16
2022-10-16T09:55:57.256Z,13.23
2022-10-16T09:58:27.636Z,13.40
2022-10-16T10:01:12.167Z,13.48
2022-10-16T10:03:42.294Z,14.08
2022-10-16T10:06:28.942Z,14.20
2022-10-16T10:14:39.514Z,14.87
2022-10-16T10:17:10.125Z,15.31
2022-10-16T10:19:58.754Z,15.37
2022-10-16T10:22:29.474Z,15.63
2022-10-16T10:25:24.079Z,15.58
2022-10-16T10:27:58.452Z,15.55
2022-10-16T10:30:38.478Z,15.94
2022-10-16T10:33:15.810Z,16.30
2022-10-16T10:36:01.367Z,16.79
2022-10-16T10:39:07.948Z,16.92
2022-10-16T10:41:56.751Z,17.16
2022-10-16T10:44:43.756Z,17.45
2022-10-16T10:47:47.804Z,18.15
2022-10-16T10:50:38.011Z,18.45
2022-10-16T10:53:14.317Z,18.01
2022-10-16T10:56:06.186Z,18.05
2022-10-16T10:59:06.756Z,18.27
2022-10-16T11:01:54.452Z,18.64
2022-10-16T11:04:45.711Z,18.73
2022-10-16T11:07:26.473Z,18.90
2022-10-16T11:09:58.365Z,19.31
2022-10-16T11:12:45.730Z,19.33
2022-10-16T11:15:27.325Z,19.66
2022-10-16T11:18:09.132Z,22.51
2022-10-16T11:20:53.973Z,24.98
2022-10-16T11:23:47.718Z,26.71
2022-10-16T11:26:24.801Z,26.40
2022-10-16T11:28:59.683Z,26.43
2022-10-16T11:31:49.860Z,23.81
2022-10-16T11:34:44.046Z,24.60
2022-10-16T11:37:26.027Z,22.29
2022-10-16T11:40:05.926Z,21.12
2022-10-16T11:42:44.280Z,21.24
2022-10-16T11:45:37.573Z,20.51
2022-10-16T11:48:36.821Z,20.83
2022-10-16T11:51:36.760Z,21.29
2022-10-16T11:54:15.731Z,21.24
2022-10-16T11:56:47.155Z,21.33
2022-10-16T11:59:37.131Z,21.94
2022-10-16T12:02:41.879Z,21.66
2022-10-16T12:05:25.486Z,22.63
2022-10-16T12:08:03.767Z,25.67
2022-10-16T12:13:06.928Z,28.65
2022-10-16T12:18:30.432Z,30.11
2022-10-16T12:21:16.640Z,29.79
2022-10-16T12:24:01.092Z,28.98
2022-10-16T12:26:34.060Z,28.82
2022-10-16T12:29:25.951Z,28.19
2022-10-16T12:31:59.398Z,27.86
2022-10-16T12:34:32.068Z,27.16
2022-10-16T12:37:14.043Z,24.79
2022-10-16T12:39:44.755Z,24.73
2022-10-16T12:42:36.893Z,27.23
2022-10-16T12:45:20.973Z,29.24
2022-10-16T12:47:52.416Z,29.97
2022-10-16T12:50:43.847Z,30.16
2022-10-16T12:53:27.557Z,30.53
2022-10-16T12:56:19.165Z,29.96
2022-10-16T12:59:08.085Z,29.81
2022-10-16T13:02:01.714Z,29.14
2022-10-16T13:04:43.256Z,28.97
2022-10-16T13:07:32.149Z,29.11
2022-10-16T13:10:15.173Z,30.73
2022-10-16T13:13:03.926Z,30.10
2022-10-16T13:16:03.365Z,30.57
2022-10-16T13:18:51.760Z,29.88
2022-10-16T13:21:35.818Z,27.60
2022-10-16T13:24:18.638Z,26.24
2022-10-16T13:27:08.829Z,25.91
2022-10-16T13:29:40.287Z,25.43
2022-10-16T13:35:20.166Z,23.88
2022-10-16T13:37:58.744Z,24.21
2022-10-16T13:40:34.484Z,23.72
2022-10-16T13:43:04.743Z,23.70
2022-10-16T13:45:41.961Z,23.10
2022-10-16T13:48:13.927Z,23.12
2022-10-16T13:50:45.007Z,23.37
2022-10-16T13:53:16.713Z,23.73
2022-10-16T13:55:53.161Z,23.76
2022-10-16T13:58:24.706Z,23.64
2022-10-16T14:01:20.256Z,23.31
2022-10-16T14:03:55.160Z,23.11
2022-10-16T14:06:38.507Z,23.93
2022-10-16T14:09:24.908Z,24.91
2022-10-16T14:12:11.693Z,24.93
2022-10-16T14:14:58.601Z,26.12
2022-10-16T14:17:32.322Z,27.15
2022-10-16T14:20:15.940Z,27.14
2022-10-16T14:22:52.112Z,25.15
2022-10-16T14:25:33.362Z,23.59
2022-10-16T14:28:05.243Z,22.93
2022-10-16T14:30:34.663Z,22.07
2022-10-16T14:33:06.558Z,21.90
2022-10-16T14:38:21.451Z,21.96
2022-10-16T14:40:50.105Z,21.76
2022-10-16T14:43:33.561Z,21.69
2022-10-16T14:46:05.676Z,21.39
2022-10-16T14:48:41.891Z,21.01
2022-10-16T14:51:20.108Z,20.84
2022-10-16T14:54:00.010Z,20.59
2022-10-16T14:56:47.044Z,20.42
2022-10-16T15:02:23.272Z,20.10
2022-10-16T15:04:53.542Z,20.24
2022-10-16T15:07:24.915Z,19.86
2022-10-16T15:09:57.118Z,19.66
2022-10-16T15:12:27.288Z,19.73
2022-10-16T15:14:57.370Z,19.64
2022-10-16T15:17:33.397Z,19.29
2022-10-16T15:20:04.251Z,19.21
2022-10-16T15:22:35.546Z,19.06
2022-10-16T15:25:15.295Z,18.97
2022-10-16T15:27:46.348Z,18.87
2022-10-16T15:30:16.752Z,18.82
2022-10-16T15:32:53.095Z,18.47
2022-10-16T15:35:23.744Z,18.46
2022-10-16T15:37:54.935Z,18.27
2022-10-16T15:40:28.802Z,18.21
2022-10-16T15:42:59.710Z,17.90
2022-10-16T15:45:30.462Z,17.75
2022-10-16T15:53:36.044Z,17.45
2022-10-16T15:56:05.720Z,17.54
2022-10-16T15:58:35.127Z,17.27
2022-10-16T16:01:05.886Z,16.99
2022-10-16T16:03:38.706Z,16.86
2022-10-16T16:06:08.186Z,16.96
2022-10-16T16:08:37.599Z,16.85
2022-10-16T16:11:13.515Z,16.91
2022-10-16T16:13:41.431Z,16.66
2022-10-16T16:16:14.562Z,17.07
2022-10-16T16:18:46.168Z,16.74
2022-10-16T16:21:20.822Z,16.78
2022-10-16T16:23:53.577Z,16.77
2022-10-16T16:26:40.767Z,16.86
2022-10-16T16:29:12.767Z,16.84
2022-10-16T16:31:44.271Z,16.81
2022-10-16T16:34:14.965Z,16.62
2022-10-16T16:36:45.434Z,16.49
2022-10-16T16:39:16.990Z,16.30
2022-10-16T16:41:50.886Z,16.11
2022-10-16T16:44:21.931Z,16.11
2022-10-16T16:46:52.159Z,16.19
2022-10-16T16:49:24.512Z,16.43
2022-10-16T16:51:54.429Z,16.30
2022-10-16T16:54:25.577Z,16.32
2022-10-16T16:56:57.263Z,16.32
2022-10-16T16:59:35.122Z,16.33
2022-10-16T17:02:08.737Z,16.48
2022-10-16T17:04:48.191Z,16.43
2022-10-16T17:07:17.508Z,16.22
2022-10-16T17:09:52.388Z,16.00
2022-10-16T17:12:23.077Z,16.27
2022-10-16T17:17:38.797Z,15.75
2022-10-16T17:20:11.854Z,15.66
2022-10-16T17:22:45.687Z,15.57
2022-10-16T17:25:14.457Z,15.70
2022-10-16T17:27:44.743Z,15.39
2022-10-16T17:30:12.805Z,15.42
2022-10-16T17:32:43.751Z,15.38
2022-10-16T17:35:13.926Z,15.17
2022-10-16T17:37:42.159Z,15.21
2022-10-16T17:42:50.374Z,14.98
2022-10-16T17:45:24.165Z,14.96
2022-10-16T17:47:54.629Z,14.94
2022-10-16T17:50:24.661Z,14.45
2022-10-16T17:52:55.527Z,14.47
2022-10-16T17:55:31.589Z,14.54
2022-10-16T17:58:06.945Z,14.34
2022-10-16T18:00:39.829Z,14.39
2022-10-16T18:03:13.477Z,14.53
2022-10-16T18:05:42.028Z,14.60
2022-10-16T18:08:12.886Z,14.46
2022-10-16T18:10:55.464Z,14.32
2022-10-16T18:13:23.362Z,14.36
2022-10-16T18:16:20.863Z,14.40
2022-10-16T18:18:51.890Z,14.25
2022-10-16T18:21:22.981Z,13.92
2022-10-16T18:23:54.331Z,14.18
2022-10-16T18:26:25.251Z,14.05
2022-10-16T18:29:06.287Z,14.07
2022-10-16T18:31:43.400Z,14.01
2022-10-16T18:34:20.563Z,13.78
2022-10-16T18:36:59.468Z,13.79
2022-10-16T18:39:30.883Z,13.62
2022-10-16T18:42:02.468Z,13.35
2022-10-16T18:44:32.104Z,13.35
2022-10-16T18:47:03.524Z,13.74
2022-10-16T18:49:38.072Z,13.33
2022-10-16T18:52:14.172Z,13.53
2022-10-16T18:54:45.520Z,13.30
2022-10-16T18:57:18.879Z,13.11
2022-10-16T18:59:49.880Z,13.10
2022-10-16T19:02:25.464Z,12.96
2022-10-16T19:04:56.165Z,13.12
2022-10-16T19:07:30.215Z,13.07
2022-10-16T19:10:02.581Z,12.94
2022-10-16T19:12:32.511Z,12.85
2022-10-16T19:15:11.252Z,12.88
2022-10-16T19:17:47.087Z,13.04
2022-10-16T19:20:25.484Z,13.18
2022-10-16T19:22:59.539Z,13.21
2022-10-16T19:28:14.306Z,12.88
2022-10-16T19:30:43.069Z,12.73
2022-10-16T19:33:14.520Z,12.54
2022-10-16T19:38:36.570Z,12.61
2022-10-16T19:41:08.902Z,12.67
2022-10-16T19:43:39.065Z,12.57
2022-10-16T19:46:10.838Z,12.42
2022-10-16T19:48:45.764Z,12.21
2022-10-16T19:51:17.321Z,12.17
2022-10-16T19:53:57.698Z,12.28
2022-10-16T19:56:36.343Z,12.50
2022-10-16T19:59:13.803Z,12.70
2022-10-16T20:01:45.829Z,12.66
2022-10-16T20:04:17.151Z,12.50
2022-10-16T20:09:26.448Z,12.46
2022-10-16T20:11:58.582Z,12.36
2022-10-16T20:14:36.032Z,12.41
2022-10-16T20:17:04.985Z,12.49
2022-10-16T20:19:42.366Z,12.46
2022-10-16T20:22:19.777Z,12.11
2022-10-16T20:24:54.551Z,12.02
2022-10-16T20:27:31.270Z,11.97
2022-10-16T20:30:01.910Z,12.08
2022-10-16T20:32:38.234Z,12.05
2022-10-16T20:35:08.096Z,11.60
2022-10-16T20:37:38.408Z,11.46
2022-10-16T20:40:09.990Z,11.45
2022-10-16T20:42:40.914Z,11.46
2022-10-16T20:45:11.430Z,11.43
2022-10-16T20:47:41.415Z,11.63
2022-10-16T20:50:09.642Z,11.41
2022-10-16T20:55:24.401Z,11.46
2022-10-16T20:57:54.606Z,11.56
2022-10-16T21:00:26.074Z,11.59
2022-10-16T21:02:57.321Z,11.55
2022-10-16T21:05:30.267Z,11.69
2022-10-16T21:08:05.215Z,11.60
2022-10-16T21:10:36.416Z,11.46
2022-10-16T21:13:04.700Z,11.67
2022-10-16T21:15:35.496Z,11.68
2022-10-16T21:18:12.798Z,11.62
2022-10-16T21:20:56.170Z,11.76
2022-10-16T21:23:26.178Z,11.98
2022-10-16T21:25:57.780Z,12.00
2022-10-16T21:28:32.232Z,11.62
2022-10-16T21:31:05.220Z,11.68
2022-10-16T21:33:38.481Z,11.57
2022-10-16T21:36:20.077Z,11.46
2022-10-16T21:38:48.871Z,11.59
2022-10-16T21:41:31.940Z,11.62
2022-10-16T21:44:12.174Z,11.27
2022-10-16T21:46:49.112Z,11.44
2022-10-16T21:49:29.763Z,11.56
2022-10-16T21:51:59.596Z,11.30
2022-10-16T21:54:37.143Z,11.45
2022-10-16T21:57:05.318Z,11.44
2022-10-16T21:59:38.623Z,11.55
2022-10-16T22:02:08.880Z,11.48
2022-10-16T22:04:42.177Z,10.95
2022-10-16T22:07:12.653Z,11.15
2022-10-16T22:09:46.198Z,11.18
2022-10-16T22:12:20.013Z,11.12
2022-10-16T22:14:50.582Z,10.85
2022-10-16T22:17:30.145Z,11.06
2022-10-16T22:20:07.786Z,10.69
2022-10-16T22:22:38.758Z,10.66
2022-10-16T22:25:07.905Z,10.62
2022-10-16T22:27:47.045Z,10.77
2022-10-16T22:30:24.076Z,10.89
2022-10-16T22:32:59.712Z,11.13
2022-10-16T22:35:33.119Z,10.97
2022-10-16T22:38:11.744Z,11.07
2022-10-16T22:40:42.711Z,10.88
2022-10-16T22:43:19.314Z,10.93
2022-10-16T22:45:56.889Z,10.81
2022-10-16T22:48:30.483Z,10.77
2022-10-16T22:51:01.106Z,10.50
2022-10-16T22:53:31.674Z,10.60
2022-10-16T22:56:05.914Z,10.54
2022-10-16T22:58:46.327Z,10.60
2022-10-16T23:01:23.496Z,10.62
2022-10-16T23:03:53.262Z,10.62
2022-10-16T23:06:21.336Z,10.61
2022-10-16T23:08:57.411Z,10.33
2022-10-16T23:11:33.208Z,10.26
2022-10-16T23:14:06.395Z,10.39
2022-10-16T23:16:37.273Z,10.44
2022-10-16T23:21:43.669Z,10.37
2022-10-16T23:24:17.163Z,10.30
2022-10-16T23:26:52.452Z,10.36
2022-10-16T23:29:21.133Z,10.43
2022-10-16T23:31:51.571Z,10.46
2022-10-16T23:34:20.418Z,10.42
2022-10-16T23:36:50.835Z,10.29
2022-10-16T23:39:23.875Z,10.32
2022-10-16T23:42:00.865Z,10.33
2022-10-16T23:44:34.086Z,10.40
2022-10-16T23:47:07.416Z,10.15
2022-10-16T23:49:36.805Z,10.47
2022-10-16T23:52:07.561Z,10.64
2022-10-16T23:54:41.328Z,10.68
2022-10-16T23:57:21.003Z,10.70
2022-10-16T23:59:54.304Z,10.58
